Strona główna
METAR-TAF:

METAR-TAF

Lotnisko :

Port lotniczy Labuan

Labuan, Malezja

Szerokość geograficzna: 05-18N, Długość geograficzna: 115-15E, wysokość: 30 m

Aktualna obserwacja pogody

Raport powstał 29 minut temu, godzina 02:00 UTC
Wiatr 8 kt od północny wschód, zmienny między zachód i wschodnio-północny wschód
Temperatura 29°C
Wilgotność 74%
Ciśnienie 1012 hPa
Widzialność 10 km lub więcej
Mało chmury na wysokości 1600 ft
Przerywane chmury na wysokości 30000 ft

METAR: WBKL 240200Z 05008KT 280V070 9999 FEW016 BKN300 29/24 Q1012

czas: 10:29 (02:29 UTC)

Prognoza

Raport powstał 3 godziny i 29 minut temu, godzina 23:00 UTC
Prognoza ważna od 24 godzina 00 UTC do 25 godzina 00 UTC
Wiatr 10 kt od północny wschód
Widzialność 10 km lub więcej
Mało chmury na wysokości 1600 ft
Przejściowo
od 24 godzina 08 UTC do 24 godzina 12 UTC
Wiatr 13 kt od północ w porywach dochodzący do 23 kt

TAF: WBKL 232300Z 2400/2500 05010KT 9999 FEW016 TEMPO 2408/2412 01013G23KT

Obserwacja i prognoza pogody dla ponad 4000 lotnisk (raport METAR i TAF).

Dostępne stacje oznaczono żółtymi i czerwonymi punktami na mapie.

Najedź kursorem aby zobaczyć nazwę stacji.

Kliknij aby zobaczyć obserwacje i prognozy pogody.

Aby zmienić mapę: kliknij na zielony przycisk z czarnym krzyżykiem, aby powiększyć; na zielony przycisk z myślnikiem, aby pomniejszyć; na zielone strzałki, aby przejść do map sąsiednich.


METAR-TAF: